Ona, Florida
Current Conditions -  °F | °C
As of 12:47 PM on Wednesday 28 Jan 2015 (Local Time) from KBOW Reporting Station
Clear Clear  
Wind Chill: 57°   Ceiling: Unl
Heat Index: 57°   Visibility: 10mi
Dew Point: 32°   Wind: 10mph
Humidity: 38%   Direction: 330°NNW
Pressure: 30.21"   Gusts: NA
Location:  27.48°N, 81.92°W
Report Text: KBOW 281747Z 33009KT 10SM SKC 14/00 A3021
Loading
Personal Weather Stations






























Interactive Weather Map New forecast layout! Learn more

10-Day Weather Forecast

Advertisements
Track Severe Weather on mobile